Ege, Indiana
Current Conditions -  °F | °C
As of 3:55 PM on Thursday 27 Nov 2014 (Local Time) from KGWB Reporting Station
Light Snow Light Snow  
Wind Chill: 24°   Ceiling: 1700
Heat Index: 32°   Visibility: 1.5mi
Dew Point: 27°   Wind: 10mph
Humidity: 80%   Direction: 280°W
Pressure: 30.24"   Gusts: 18mph
Location:  41.3048°N, 85.2502°W
Report Text: KGWB 272055Z AUTO 28009G16KT 1 1/2SM -SN OVC017 00/M03 A3024 RMK AO2 VIS 1/4V5
Loading
Personal Weather Stations






























Interactive Weather Map New forecast layout! Learn more

10-Day Weather Forecast

Advertisements
Track Severe Weather on mobile